Time;durP1;ratioP1;P1;durP2;ratioP2;P2;SDS_P1;SDS_P2;PMS_P1;PMS_P2;Temp;Humidity;BMP_temperature;BMP_pressure;BME280_temperature;BME280_humidity;BME280_pressure;Samples;Min_cycle;Max_cycle;Signal;HPM_P1;HPM_P2
2023/09/20 00:01:08;;;;;;;;;;;16.80;82.80;;;;;;5048072;28;19916;-76
2023/09/20 00:03:33;;;;;;;;;;;16.90;82.90;;;;;;5013626;28;19916;-75
2023/09/20 00:06:00;;;;;;;;;;;16.90;82.90;;;;;;5048066;28;20372;-75
2023/09/20 00:08:26;;;;;;;;;;;17.00;82.80;;;;;;5048042;28;19916;-75
2023/09/20 00:10:51;;;;;;;;;;;17.00;82.80;;;;;;5030220;28;19913;-75
2023/09/20 00:13:17;;;;;;;;;;;17.00;82.80;;;;;;5029967;28;19913;-75
2023/09/20 00:15:43;;;;;;;;;;;17.10;82.90;;;;;;5047900;28;19920;-76
2023/09/20 00:18:09;;;;;;;;;;;17.10;82.90;;;;;;5047840;28;20392;-76
2023/09/20 00:20:35;;;;;;;;;;;17.10;82.90;;;;;;5029952;28;20638;-75
2023/09/20 00:23:02;;;;;;;;;;;17.20;82.90;;;;;;5046722;28;20004;-75
2023/09/20 00:25:28;;;;;;;;;;;17.20;82.90;;;;;;5047833;28;19919;-76
2023/09/20 00:27:53;;;;;;;;;;;17.20;82.80;;;;;;5030064;28;19913;-76
2023/09/20 00:30:19;;;;;;;;;;;17.30;82.90;;;;;;5029826;28;19908;-76
2023/09/20 00:32:45;;;;;;;;;;;17.30;82.90;;;;;;5047674;28;19966;-76
2023/09/20 00:35:14;;;;;;;;;;;17.30;82.90;;;;;;5047567;28;19919;-76
2023/09/20 00:37:40;;;;;;;;;;;17.30;82.80;;;;;;5047693;28;20362;-76
2023/09/20 00:40:17;;;;;;;;;;;17.30;82.80;;;;;;5047673;28;20396;-76
2023/09/20 00:42:44;;;;;;;;;;;17.30;82.80;;;;;;5047659;28;20387;-76
2023/09/20 00:45:09;;;;;;;;;;;17.30;82.80;;;;;;5047572;28;19913;-75
2023/09/20 00:47:37;;;;;;;;;;;17.30;82.90;;;;;;5047619;28;20387;-76
2023/09/20 00:50:07;;;;;;;;;;;17.30;82.90;;;;;;5047755;28;19948;-76
2023/09/20 00:52:32;;;;;;;;;;;17.30;83.00;;;;;;5047525;28;19920;-76
2023/09/20 00:54:58;;;;;;;;;;;17.30;83.00;;;;;;5047404;28;19928;-76
2023/09/20 00:57:24;;;;;;;;;;;17.30;83.10;;;;;;5047464;28;19919;-76
2023/09/20 00:59:51;;;;;;;;;;;17.40;83.20;;;;;;5047841;28;19909;-76
2023/09/20 01:02:18;;;;;;;;;;;17.40;83.10;;;;;;5047527;28;20003;-76
2023/09/20 01:04:44;;;;;;;;;;;17.50;83.10;;;;;;5047224;28;19917;-76
2023/09/20 01:07:10;;;;;;;;;;;17.50;83.00;;;;;;5047415;28;19915;-76
2023/09/20 01:09:36;;;;;;;;;;;17.60;83.10;;;;;;5029369;28;19916;-76
2023/09/20 01:12:02;;;;;;;;;;;17.60;83.10;;;;;;5029751;28;20016;-76
2023/09/20 01:14:30;;;;;;;;;;;17.70;83.10;;;;;;5047240;28;19916;-76
2023/09/20 01:16:55;;;;;;;;;;;17.70;83.50;;;;;;5012913;28;19913;-76
2023/09/20 01:19:21;;;;;;;;;;;17.80;83.10;;;;;;5047352;28;19919;-76
2023/09/20 01:21:46;;;;;;;;;;;17.80;83.10;;;;;;5029195;28;19935;-76
2023/09/20 01:24:13;;;;;;;;;;;17.80;83.00;;;;;;5029253;28;19921;-76
2023/09/20 01:26:41;;;;;;;;;;;17.80;83.00;;;;;;5047222;28;19947;-76
2023/09/20 01:29:07;;;;;;;;;;;17.80;83.00;;;;;;5047217;28;19956;-76
2023/09/20 01:31:33;;;;;;;;;;;17.80;83.10;;;;;;5047214;28;20368;-76
2023/09/20 01:33:59;;;;;;;;;;;17.90;83.10;;;;;;5048079;28;19993;-76
2023/09/20 01:36:24;;;;;;;;;;;17.90;83.20;;;;;;5032967;28;20017;-76
2023/09/20 01:38:50;;;;;;;;;;;17.90;83.20;;;;;;5033050;28;19924;-76
2023/09/20 01:41:18;;;;;;;;;;;18.00;83.20;;;;;;5050745;28;19920;-76
2023/09/20 01:43:44;;;;;;;;;;;18.00;83.20;;;;;;5032691;28;19917;-76
2023/09/20 01:46:10;;;;;;;;;;;18.10;83.30;;;;;;5050734;28;19913;-76
2023/09/20 01:48:36;;;;;;;;;;;18.10;83.20;;;;;;5050590;28;19908;-76
2023/09/20 01:51:03;;;;;;;;;;;18.10;83.20;;;;;;5032545;28;20070;-76
2023/09/20 01:53:29;;;;;;;;;;;18.20;83.30;;;;;;5032911;28;19916;-76
2023/09/20 01:55:57;;;;;;;;;;;18.20;83.30;;;;;;5050733;28;19916;-76
2023/09/20 01:58:23;;;;;;;;;;;18.20;83.30;;;;;;5032506;28;19964;-76
2023/09/20 02:00:50;;;;;;;;;;;18.20;83.30;;;;;;5050380;28;19969;-76
2023/09/20 02:03:16;;;;;;;;;;;18.20;83.30;;;;;;5050243;28;19920;-76
2023/09/20 02:05:48;;;;;;;;;;;18.30;83.40;;;;;;5050246;28;19920;-76
2023/09/20 02:08:14;;;;;;;;;;;18.30;83.40;;;;;;5050346;28;20376;-76
2023/09/20 02:10:40;;;;;;;;;;;18.30;83.40;;;;;;5050275;28;20007;-76
2023/09/20 02:13:06;;;;;;;;;;;18.40;83.40;;;;;;5032400;28;20007;-76
2023/09/20 02:15:34;;;;;;;;;;;18.30;83.30;;;;;;5050189;28;19954;-76
2023/09/20 02:18:01;;;;;;;;;;;18.40;83.40;;;;;;5049995;28;19909;-76
2023/09/20 02:20:27;;;;;;;;;;;18.40;83.40;;;;;;5050129;28;20382;-76
2023/09/20 02:22:53;;;;;;;;;;;18.40;83.40;;;;;;5049781;28;19925;-76
2023/09/20 02:25:22;;;;;;;;;;;18.40;83.40;;;;;;5049922;28;19912;-76
2023/09/20 02:27:48;;;;;;;;;;;18.40;83.30;;;;;;5050129;28;20175;-76
2023/09/20 02:30:15;;;;;;;;;;;18.30;83.20;;;;;;5049930;28;19909;-76
2023/09/20 02:32:41;;;;;;;;;;;18.30;83.30;;;;;;5050261;28;19920;-76
2023/09/20 02:35:07;;;;;;;;;;;18.30;83.30;;;;;;5049699;28;20357;-76
2023/09/20 02:37:36;;;;;;;;;;;18.20;83.20;;;;;;5049766;28;19919;-76
2023/09/20 02:40:11;;;;;;;;;;;18.10;83.20;;;;;;5049747;28;19908;-76
2023/09/20 02:42:43;;;;;;;;;;;18.10;83.30;;;;;;5031761;28;20441;-76
2023/09/20 02:45:09;;;;;;;;;;;18.10;83.30;;;;;;5048740;28;19917;-76
2023/09/20 02:47:34;;;;;;;;;;;18.00;83.30;;;;;;5031366;28;19915;-76
2023/09/20 02:50:00;;;;;;;;;;;18.00;83.30;;;;;;5015180;28;19912;-75
2023/09/20 02:52:26;;;;;;;;;;;17.90;83.30;;;;;;5049365;28;19920;-75
2023/09/20 02:54:52;;;;;;;;;;;17.80;83.30;;;;;;5049380;28;19966;-76
2023/09/20 02:57:17;;;;;;;;;;;17.80;83.30;;;;;;5031870;28;19958;-75
2023/09/20 02:59:43;;;;;;;;;;;17.80;83.40;;;;;;5031524;28;20007;-75
2023/09/20 03:02:10;;;;;;;;;;;17.70;83.50;;;;;;5049237;28;19912;-75
2023/09/20 03:04:38;;;;;;;;;;;17.70;83.60;;;;;;5048997;28;19943;-75
2023/09/20 03:07:06;;;;;;;;;;;17.70;83.60;;;;;;5031441;28;19913;-75
2023/09/20 03:09:36;;;;;;;;;;;17.70;83.60;;;;;;5031476;28;19915;-76
2023/09/20 03:12:05;;;;;;;;;;;17.80;83.60;;;;;;5049075;28;19908;-76
2023/09/20 03:14:31;;;;;;;;;;;17.80;83.50;;;;;;5049047;28;20317;-75
2023/09/20 03:16:56;;;;;;;;;;;17.80;83.50;;;;;;5048970;28;20010;-75
2023/09/20 03:19:22;;;;;;;;;;;17.80;83.60;;;;;;5031013;28;20285;-75
2023/09/20 03:21:48;;;;;;;;;;;17.80;83.60;;;;;;5048683;28;19929;-76
2023/09/20 03:24:14;;;;;;;;;;;17.80;83.60;;;;;;5048715;28;20030;-76
2023/09/20 03:26:39;;;;;;;;;;;17.80;83.60;;;;;;5030842;28;20384;-76
2023/09/20 03:29:07;;;;;;;;;;;17.80;83.60;;;;;;5030819;28;20021;-76
2023/09/20 03:31:32;;;;;;;;;;;17.80;83.60;;;;;;5048657;28;19962;-76
2023/09/20 03:34:03;;;;;;;;;;;17.70;83.60;;;;;;5048549;28;20392;-76
2023/09/20 03:36:28;;;;;;;;;;;17.70;83.60;;;;;;5048822;28;20388;-75
2023/09/20 03:38:57;;;;;;;;;;;17.70;83.70;;;;;;5048534;28;19920;-75
2023/09/20 03:41:24;;;;;;;;;;;17.60;83.70;;;;;;5031273;28;19939;-76
2023/09/20 03:43:50;;;;;;;;;;;17.70;83.70;;;;;;5030628;28;20293;-76
2023/09/20 03:46:16;;;;;;;;;;;17.70;83.80;;;;;;5030520;28;19966;-75
2023/09/20 03:48:43;;;;;;;;;;;17.70;83.80;;;;;;5014134;28;19959;-76
2023/09/20 03:51:13;;;;;;;;;;;17.70;83.80;;;;;;5048284;28;19920;-76
2023/09/20 03:53:38;;;;;;;;;;;17.70;83.70;;;;;;5048171;28;19917;-76
2023/09/20 03:56:04;;;;;;;;;;;17.70;83.70;;;;;;5048240;28;20356;-76
2023/09/20 03:58:30;;;;;;;;;;;17.70;83.80;;;;;;5047949;28;19916;-76
2023/09/20 04:00:56;;;;;;;;;;;17.70;83.80;;;;;;5030310;28;19956;-75
2023/09/20 04:03:22;;;;;;;;;;;17.70;83.80;;;;;;5047923;28;19951;-76
2023/09/20 04:05:48;;;;;;;;;;;17.80;83.80;;;;;;5030119;28;19917;-76
2023/09/20 04:08:16;;;;;;;;;;;17.80;83.70;;;;;;5048117;28;19913;-76
2023/09/20 04:10:42;;;;;;;;;;;17.90;83.70;;;;;;5030142;28;19934;-76
2023/09/20 04:13:08;;;;;;;;;;;17.90;83.70;;;;;;5047831;28;19913;-75
2023/09/20 04:15:33;;;;;;;;;;;17.90;83.70;;;;;;5048003;28;19996;-75
2023/09/20 04:18:01;;;;;;;;;;;17.80;83.60;;;;;;5047794;28;20012;-76
2023/09/20 04:20:26;;;;;;;;;;;17.80;83.70;;;;;;5047878;28;19913;-76
2023/09/20 04:22:52;;;;;;;;;;;17.80;83.70;;;;;;5047622;28;19943;-76
2023/09/20 04:25:18;;;;;;;;;;;17.80;83.80;;;;;;5047833;28;19977;-76
2023/09/20 04:27:46;;;;;;;;;;;17.80;83.80;;;;;;5047801;28;19917;-75
2023/09/20 04:30:13;;;;;;;;;;;17.80;83.80;;;;;;5030228;28;19913;-76
2023/09/20 04:32:40;;;;;;;;;;;17.80;83.80;;;;;;5029760;28;20380;-76
2023/09/20 04:35:06;;;;;;;;;;;17.90;83.80;;;;;;5047680;28;20446;-75
2023/09/20 04:37:32;;;;;;;;;;;17.90;83.80;;;;;;5047959;28;20011;-75
2023/09/20 04:39:57;;;;;;;;;;;18.00;83.80;;;;;;5047670;28;19923;-76
2023/09/20 04:42:23;;;;;;;;;;;18.00;83.70;;;;;;5047498;28;20361;-76
2023/09/20 04:44:52;;;;;;;;;;;18.00;83.70;;;;;;5029704;28;19917;-76
2023/09/20 04:47:17;;;;;;;;;;;18.00;83.70;;;;;;5029397;28;19919;-75
2023/09/20 04:49:44;;;;;;;;;;;18.10;83.80;;;;;;5047345;28;20351;-76
2023/09/20 04:52:11;;;;;;;;;;;18.10;83.70;;;;;;5047568;28;19908;-75
2023/09/20 04:54:37;;;;;;;;;;;18.10;83.70;;;;;;5047419;28;20023;-75
2023/09/20 04:57:04;;;;;;;;;;;18.10;83.70;;;;;;5047463;28;20278;-75
2023/09/20 04:59:31;;;;;;;;;;;18.10;83.60;;;;;;5047288;28;19920;-76
2023/09/20 05:01:56;;;;;;;;;;;18.10;83.60;;;;;;5029659;28;19953;-75
2023/09/20 05:04:22;;;;;;;;;;;18.00;83.50;;;;;;5047277;28;19952;-75
2023/09/20 05:06:48;;;;;;;;;;;18.00;83.50;;;;;;5047262;28;20327;-75
2023/09/20 05:09:13;;;;;;;;;;;17.90;83.40;;;;;;5031065;28;20515;-75
2023/09/20 05:11:39;;;;;;;;;;;17.90;83.40;;;;;;5033304;28;20019;-75
2023/09/20 05:14:07;;;;;;;;;;;17.70;83.20;;;;;;5051300;28;19913;-76
2023/09/20 05:16:33;;;;;;;;;;;17.60;83.20;;;;;;5033040;28;20320;-76
2023/09/20 05:18:59;;;;;;;;;;;17.50;83.10;;;;;;5051021;28;19947;-74
2023/09/20 05:21:25;;;;;;;;;;;17.30;83.20;;;;;;5051432;28;19964;-74
2023/09/20 05:23:50;;;;;;;;;;;17.10;83.10;;;;;;5051104;28;19966;-75
2023/09/20 05:26:18;;;;;;;;;;;17.00;83.20;;;;;;5033155;28;19913;-75
2023/09/20 05:28:44;;;;;;;;;;;16.90;83.20;;;;;;5017308;28;19948;-75
2023/09/20 05:31:09;;;;;;;;;;;16.80;83.30;;;;;;5051016;28;19956;-76
2023/09/20 05:33:35;;;;;;;;;;;16.70;83.40;;;;;;5050881;28;19921;-75
2023/09/20 05:36:01;;;;;;;;;;;16.60;83.40;;;;;;5032995;28;19955;-76
2023/09/20 05:38:26;;;;;;;;;;;16.50;83.30;;;;;;5032833;28;19909;-76
2023/09/20 05:40:52;;;;;;;;;;;16.40;83.40;;;;;;5032713;28;19955;-76
2023/09/20 05:43:18;;;;;;;;;;;16.30;83.40;;;;;;5050443;28;20498;-76
2023/09/20 05:45:43;;;;;;;;;;;16.20;83.40;;;;;;5032726;28;19924;-76
2023/09/20 05:48:12;;;;;;;;;;;16.10;83.50;;;;;;5050639;28;19913;-76
2023/09/20 05:50:38;;;;;;;;;;;16.00;83.50;;;;;;5050573;28;20288;-76
2023/09/20 05:53:06;;;;;;;;;;;15.90;83.50;;;;;;5032392;28;19920;-75
2023/09/20 05:55:43;;;;;;;;;;;15.90;83.50;;;;;;5050298;28;20369;-76
2023/09/20 05:58:09;;;;;;;;;;;15.80;83.50;;;;;;5032330;28;19916;-76
2023/09/20 06:00:35;;;;;;;;;;;15.70;83.40;;;;;;5032357;28;20443;-76
2023/09/20 06:03:01;;;;;;;;;;;15.70;83.40;;;;;;5050006;28;19963;-76
2023/09/20 06:05:26;;;;;;;;;;;15.60;83.50;;;;;;5032350;28;20376;-76
2023/09/20 06:07:53;;;;;;;;;;;15.60;83.50;;;;;;5050035;28;20003;-76
2023/09/20 06:10:19;;;;;;;;;;;15.50;83.40;;;;;;5032232;28;20427;-75
2023/09/20 06:12:45;;;;;;;;;;;15.50;83.40;;;;;;5032044;28;19913;-75
2023/09/20 06:15:13;;;;;;;;;;;15.50;83.40;;;;;;5050165;28;19913;-76
2023/09/20 06:17:39;;;;;;;;;;;15.50;83.40;;;;;;5051155;28;19963;-75
2023/09/20 06:20:09;;;;;;;;;;;15.50;83.40;;;;;;5049629;28;19947;-76
2023/09/20 06:22:35;;;;;;;;;;;15.50;83.30;;;;;;5049714;28;20277;-76
2023/09/20 06:25:01;;;;;;;;;;;15.40;83.30;;;;;;5031800;28;20373;-76
2023/09/20 06:27:30;;;;;;;;;;;15.40;83.30;;;;;;5049688;28;20388;-75
2023/09/20 06:29:56;;;;;;;;;;;15.40;83.30;;;;;;5049445;28;20004;-76
2023/09/20 06:32:22;;;;;;;;;;;15.40;83.30;;;;;;5032048;28;20007;-76
2023/09/20 06:34:47;;;;;;;;;;;15.40;83.30;;;;;;5049284;28;19921;-76
2023/09/20 06:37:13;;;;;;;;;;;15.50;83.30;;;;;;5014951;28;19913;-76
2023/09/20 06:39:39;;;;;;;;;;;15.50;83.30;;;;;;5049085;28;20004;-76
2023/09/20 06:42:05;;;;;;;;;;;15.50;83.30;;;;;;5047741;28;20071;-75
2023/09/20 06:44:38;;;;;;;;;;;15.50;83.30;;;;;;5048820;28;20091;-76
2023/09/20 06:47:04;;;;;;;;;;;15.60;83.40;;;;;;5031359;28;19913;-78
2023/09/20 06:49:31;;;;;;;;;;;15.60;83.30;;;;;;5031031;28;20347;-78
2023/09/20 06:51:57;;;;;;;;;;;15.70;83.30;;;;;;5014261;28;19962;-75
2023/09/20 06:54:23;;;;;;;;;;;15.90;83.30;;;;;;5047992;28;19916;-76
2023/09/20 06:56:50;;;;;;;;;;;15.80;83.10;;;;;;5013848;28;19913;-75
2023/09/20 06:59:16;;;;;;;;;;;15.90;83.00;;;;;;5048651;28;20383;-76
2023/09/20 07:01:42;;;;;;;;;;;15.80;82.90;;;;;;5048779;28;20402;-76
2023/09/20 07:04:09;;;;;;;;;;;15.80;82.80;;;;;;5048123;28;20020;-76
2023/09/20 07:06:35;;;;;;;;;;;15.80;82.80;;;;;;5047887;28;19913;-76
2023/09/20 07:09:00;;;;;;;;;;;15.80;82.80;;;;;;5048106;28;19975;-76
2023/09/20 07:11:28;;;;;;;;;;;15.80;82.90;;;;;;5030495;28;19913;-76
2023/09/20 07:13:54;;;;;;;;;;;15.80;82.90;;;;;;5048418;28;19999;-76
2023/09/20 07:16:20;;;;;;;;;;;15.90;83.00;;;;;;5030697;28;20449;-75
2023/09/20 07:18:46;;;;;;;;;;;16.00;82.80;;;;;;5048602;28;20159;-75
2023/09/20 07:21:14;;;;;;;;;;;16.00;82.40;;;;;;5029945;28;19917;-75
2023/09/20 07:23:41;;;;;;;;;;;15.80;82.30;;;;;;5030011;28;19924;-76
2023/09/20 07:26:07;;;;;;;;;;;15.80;82.50;;;;;;5047310;28;19935;-75
2023/09/20 07:28:37;;;;;;;;;;;15.70;82.60;;;;;;5047164;28;20198;-75
2023/09/20 07:31:03;;;;;;;;;;;15.60;82.70;;;;;;5030153;28;19967;-76
2023/09/20 07:33:30;;;;;;;;;;;15.60;82.80;;;;;;5047764;28;19942;-76
2023/09/20 07:35:58;;;;;;;;;;;15.60;82.80;;;;;;5048200;28;20186;-76
2023/09/20 07:38:29;;;;;;;;;;;15.70;82.90;;;;;;5048039;28;19944;-75
2023/09/20 07:41:18;;;;;;;;;;;15.70;83.00;;;;;;5047611;28;20336;-76
2023/09/20 07:43:44;;;;;;;;;;;15.80;82.90;;;;;;5029558;28;20466;-76
2023/09/20 07:46:09;;;;;;;;;;;15.80;82.80;;;;;;5047855;28;19912;-75
2023/09/20 07:48:46;;;;;;;;;;;15.90;82.70;;;;;;5030415;28;19916;-77
2023/09/20 07:51:14;;;;;;;;;;;15.90;82.60;;;;;;5047421;28;19952;-76
2023/09/20 07:53:39;;;;;;;;;;;15.90;82.60;;;;;;5047368;28;20039;-76
2023/09/20 07:56:06;;;;;;;;;;;15.90;82.70;;;;;;5047111;28;20004;-76
2023/09/20 07:58:40;;;;;;;;;;;15.90;82.70;;;;;;5047199;28;19908;-76
2023/09/20 08:01:18;;;;;;;;;;;15.90;82.80;;;;;;5029620;28;19915;-76
2023/09/20 08:03:50;;;;;;;;;;;16.00;82.90;;;;;;5047572;28;19924;-75
2023/09/20 08:06:17;;;;;;;;;;;16.10;82.80;;;;;;5047472;28;19917;-76
2023/09/20 08:08:42;;;;;;;;;;;16.10;82.70;;;;;;5047473;28;19920;-76
2023/09/20 08:11:08;;;;;;;;;;;16.20;82.90;;;;;;5047694;28;19909;-76
2023/09/20 08:13:33;;;;;;;;;;;16.40;83.00;;;;;;5047418;28;19954;-76
2023/09/20 08:16:02;;;;;;;;;;;16.50;82.90;;;;;;5047615;28;19917;-76
2023/09/20 08:21:12;;;;;;;;;;;16.80;82.60;;;;;;5047046;28;20391;-75
2023/09/20 09:02:05;;;;;;;;;;;18.00;81.80;;;;;;5026308;28;19920;-74
2023/09/20 09:04:31;;;;;;;;;;;18.00;82.40;;;;;;5046253;28;19913;-74
2023/09/20 09:06:57;;;;;;;;;;;18.40;83.20;;;;;;5050651;28;19999;-75
2023/09/20 09:09:22;;;;;;;;;;;18.70;82.70;;;;;;5032515;28;20031;-75
2023/09/20 09:11:48;;;;;;;;;;;18.80;82.20;;;;;;5032571;28;19939;-76
2023/09/20 09:14:13;;;;;;;;;;;18.70;82.10;;;;;;5021534;28;20001;-74
2023/09/20 09:16:39;;;;;;;;;;;19.10;83.10;;;;;;5056486;28;19921;-74
2023/09/20 09:19:07;;;;;;;;;;;19.40;82.80;;;;;;5040759;28;19919;-75
2023/09/20 09:21:34;;;;;;;;;;;19.70;82.60;;;;;;5054771;28;19922;-75
2023/09/20 09:24:00;;;;;;;;;;;20.00;82.70;;;;;;5058103;28;19917;-74
2023/09/20 09:26:26;;;;;;;;;;;20.30;82.70;;;;;;5056391;28;19916;-74
2023/09/20 09:28:52;;;;;;;;;;;20.50;82.50;;;;;;5021930;28;19917;-73
2023/09/20 09:31:17;;;;;;;;;;;20.80;82.40;;;;;;5056920;28;19919;-74
2023/09/20 09:33:43;;;;;;;;;;;20.60;81.60;;;;;;5039488;28;19919;-73
2023/09/20 09:36:12;;;;;;;;;;;20.10;81.00;;;;;;5055909;28;20063;-73
2023/09/20 09:38:39;;;;;;;;;;;19.80;81.80;;;;;;5056051;28;20530;-72
2023/09/20 09:41:05;;;;;;;;;;;20.10;83.00;;;;;;5043977;28;20344;-74
2023/09/20 09:43:31;;;;;;;;;;;20.60;83.60;;;;;;5039489;28;19923;-74
2023/09/20 09:46:04;;;;;;;;;;;21.20;83.40;;;;;;5057211;28;20411;-74
2023/09/20 09:48:32;;;;;;;;;;;21.70;83.30;;;;;;5055707;28;19916;-75
2023/09/20 09:50:59;;;;;;;;;;;22.10;82.80;;;;;;5057430;28;20110;-75
2023/09/20 09:53:25;;;;;;;;;;;22.30;82.30;;;;;;5038173;28;19909;-75
2023/09/20 09:55:51;;;;;;;;;;;22.20;82.30;;;;;;5057547;28;20650;-74
2023/09/20 09:58:17;;;;;;;;;;;22.30;82.60;;;;;;5033074;28;19913;-75
2023/09/20 10:00:46;;;;;;;;;;;22.40;82.30;;;;;;5033360;28;19920;-76
2023/09/20 10:03:18;;;;;;;;;;;22.10;81.60;;;;;;5050476;28;19912;-76
2023/09/20 10:05:46;;;;;;;;;;;21.70;81.60;;;;;;5051351;28;19982;-74
2023/09/20 10:08:13;;;;;;;;;;;21.40;81.80;;;;;;5051146;28;19992;-71
2023/09/20 10:10:41;;;;;;;;;;;21.50;82.90;;;;;;5050641;28;19916;-76
2023/09/20 10:13:08;;;;;;;;;;;21.60;83.00;;;;;;5052255;28;19909;-76
2023/09/20 10:15:35;;;;;;;;;;;22.00;83.60;;;;;;5033941;28;20426;-76
2023/09/20 10:18:01;;;;;;;;;;;22.50;83.50;;;;;;5033130;28;19970;-76
2023/09/20 10:20:46;;;;;;;;;;;22.80;83.20;;;;;;5050623;28;19917;-76
2023/09/20 10:23:11;;;;;;;;;;;23.10;83.20;;;;;;5050451;28;20524;-74
2023/09/20 10:25:37;;;;;;;;;;;23.40;83.00;;;;;;5016378;28;20008;-76
2023/09/20 10:28:04;;;;;;;;;;;23.50;82.60;;;;;;5032639;28;19916;-75
2023/09/20 10:30:34;;;;;;;;;;;23.70;82.70;;;;;;5032271;28;19917;-77
2023/09/20 10:33:03;;;;;;;;;;;23.70;82.30;;;;;;5012455;28;19913;-76
2023/09/20 10:35:30;;;;;;;;;;;23.50;82.00;;;;;;5030288;28;19908;-76
2023/09/20 10:37:56;;;;;;;;;;;23.60;82.70;;;;;;5012405;28;19913;-77
2023/09/20 10:40:22;;;;;;;;;;;23.90;82.70;;;;;;5040587;28;19909;-75
2023/09/20 10:42:51;;;;;;;;;;;24.10;82.70;;;;;;5050093;28;19946;-76
2023/09/20 10:45:17;;;;;;;;;;;24.10;82.60;;;;;;5047297;28;19966;-75
2023/09/20 10:47:47;;;;;;;;;;;24.20;82.50;;;;;;5030338;28;19913;-77
2023/09/20 10:50:33;;;;;;;;;;;24.10;82.40;;;;;;5030577;28;19909;-77
2023/09/20 10:52:58;;;;;;;;;;;24.10;82.60;;;;;;5012057;28;20002;-75
2023/09/20 10:55:24;;;;;;;;;;;24.00;82.40;;;;;;4996117;28;20365;-75
2023/09/20 10:57:50;;;;;;;;;;;24.00;82.30;;;;;;5029913;28;19913;-74
2023/09/20 11:00:25;;;;;;;;;;;23.90;82.40;;;;;;5029307;28;19929;-74
2023/09/20 11:02:54;;;;;;;;;;;23.80;82.40;;;;;;5030341;28;19935;-76
2023/09/20 11:05:21;;;;;;;;;;;23.80;82.60;;;;;;5033500;28;19916;-76
2023/09/20 11:07:47;;;;;;;;;;;23.80;82.80;;;;;;5037990;28;20289;-76
2023/09/20 11:10:17;;;;;;;;;;;23.80;82.70;;;;;;5029754;28;19913;-78
2023/09/20 11:12:44;;;;;;;;;;;23.80;82.90;;;;;;5029817;28;19947;-70
2023/09/20 11:15:10;;;;;;;;;;;23.80;82.70;;;;;;5029494;28;19992;-76
2023/09/20 11:17:36;;;;;;;;;;;23.70;82.60;;;;;;5029443;28;19924;-76
2023/09/20 11:20:04;;;;;;;;;;;23.60;82.60;;;;;;5029658;28;19921;-76
2023/09/20 11:22:33;;;;;;;;;;;23.70;83.10;;;;;;5029516;28;19921;-76
2023/09/20 11:25:00;;;;;;;;;;;23.70;83.10;;;;;;5029254;28;20343;-74
2023/09/20 11:27:27;;;;;;;;;;;23.70;82.70;;;;;;5029004;28;19909;-75
2023/09/20 11:29:53;;;;;;;;;;;23.60;82.70;;;;;;5027584;28;19916;-72
2023/09/20 11:32:22;;;;;;;;;;;23.60;82.80;;;;;;5028421;28;19919;-72
2023/09/20 11:34:49;;;;;;;;;;;23.70;83.20;;;;;;5030287;28;20571;-74
2023/09/20 11:37:17;;;;;;;;;;;23.80;83.30;;;;;;5028507;28;20033;-75
2023/09/20 11:39:44;;;;;;;;;;;23.80;82.70;;;;;;5028022;28;20653;-76
2023/09/20 11:42:10;;;;;;;;;;;23.50;82.00;;;;;;5027921;28;19967;-73
2023/09/20 11:44:36;;;;;;;;;;;23.00;81.70;;;;;;5027915;28;19913;-74
2023/09/20 11:47:03;;;;;;;;;;;22.50;81.80;;;;;;5042513;28;20553;-74
2023/09/20 11:49:29;;;;;;;;;;;21.90;81.40;;;;;;5056175;28;19913;-74
2023/09/20 11:51:57;;;;;;;;;;;21.30;81.30;;;;;;5055314;28;20353;-75
2023/09/20 11:54:28;;;;;;;;;;;21.10;82.30;;;;;;5054070;28;19917;-75
2023/09/20 11:56:57;;;;;;;;;;;21.20;83.30;;;;;;5038583;28;19909;-74
2023/09/20 11:59:22;;;;;;;;;;;21.70;84.40;;;;;;5053309;28;19934;-74
2023/09/20 12:01:48;;;;;;;;;;;22.40;84.70;;;;;;5057343;28;20351;-74
2023/09/20 12:04:14;;;;;;;;;;;22.90;84.20;;;;;;5039386;28;19932;-74
2023/09/20 12:06:40;;;;;;;;;;;23.40;84.10;;;;;;5059484;28;20535;-74
2023/09/20 12:09:05;;;;;;;;;;;23.90;84.30;;;;;;5056125;28;19917;-74
2023/09/20 12:11:32;;;;;;;;;;;24.40;84.20;;;;;;5030365;28;20035;-74
2023/09/20 12:13:57;;;;;;;;;;;24.80;83.80;;;;;;5051169;28;20136;-74
2023/09/20 12:16:23;;;;;;;;;;;25.10;83.40;;;;;;5059228;28;19912;-75
2023/09/20 12:18:49;;;;;;;;;;;25.10;83.10;;;;;;5047257;28;19912;-71
2023/09/20 12:21:15;;;;;;;;;;;25.00;83.00;;;;;;5067887;28;19936;-74
2023/09/20 12:23:41;;;;;;;;;;;25.00;83.20;;;;;;5067870;28;19970;-75
2023/09/20 12:26:08;;;;;;;;;;;25.00;83.30;;;;;;5067970;28;19923;-74
2023/09/20 12:28:34;;;;;;;;;;;25.00;83.00;;;;;;5050178;28;20249;-74
2023/09/20 12:30:59;;;;;;;;;;;24.90;82.80;;;;;;5068003;28;19970;-72
2023/09/20 12:33:25;;;;;;;;;;;24.70;82.80;;;;;;5050330;28;20419;-73
2023/09/20 12:35:52;;;;;;;;;;;24.60;82.90;;;;;;5068421;28;19917;-73
2023/09/20 12:38:18;;;;;;;;;;;24.50;83.40;;;;;;5066372;28;19916;-75
2023/09/20 12:40:43;;;;;;;;;;;24.50;83.70;;;;;;5057669;28;19962;-75
2023/09/20 12:43:09;;;;;;;;;;;24.60;83.80;;;;;;5059186;28;20011;-73
2023/09/20 12:45:35;;;;;;;;;;;24.80;84.00;;;;;;5038965;28;19917;-71
2023/09/20 12:48:00;;;;;;;;;;;24.80;83.80;;;;;;5057364;28;19930;-72
2023/09/20 12:50:26;;;;;;;;;;;25.00;83.90;;;;;;5038202;28;20417;-77
2023/09/20 12:52:51;;;;;;;;;;;25.00;83.90;;;;;;5047573;28;20039;-72
2023/09/20 12:55:17;;;;;;;;;;;25.30;84.40;;;;;;5048156;28;20387;-75
2023/09/20 12:57:43;;;;;;;;;;;25.60;84.30;;;;;;5047936;28;20007;-77
2023/09/20 13:00:12;;;;;;;;;;;25.60;83.70;;;;;;5047852;28;19924;-74
2023/09/20 13:02:38;;;;;;;;;;;25.40;83.50;;;;;;5047897;28;19909;-75
2023/09/20 13:05:03;;;;;;;;;;;25.30;83.40;;;;;;5048099;28;19923;-76
2023/09/20 13:07:29;;;;;;;;;;;25.20;83.70;;;;;;5029937;28;19972;-75
2023/09/20 13:09:58;;;;;;;;;;;25.10;84.10;;;;;;5047799;28;19913;-74
2023/09/20 13:12:24;;;;;;;;;;;25.00;83.50;;;;;;5013459;28;19917;-74
2023/09/20 13:14:50;;;;;;;;;;;24.80;83.30;;;;;;5047317;28;19909;-75
2023/09/20 13:17:16;;;;;;;;;;;24.60;83.50;;;;;;5047708;28;19919;-76
2023/09/20 13:19:41;;;;;;;;;;;24.60;83.80;;;;;;5030063;28;19908;-75
2023/09/20 13:22:09;;;;;;;;;;;24.60;83.80;;;;;;5047970;28;19928;-75
2023/09/20 13:24:35;;;;;;;;;;;24.50;83.30;;;;;;5047666;28;19917;-74
2023/09/20 13:27:01;;;;;;;;;;;24.20;83.10;;;;;;5047773;28;20352;-74
2023/09/20 13:29:28;;;;;;;;;;;24.00;83.30;;;;;;5029887;28;20249;-76
2023/09/20 13:31:53;;;;;;;;;;;23.80;83.10;;;;;;5033323;28;19913;-76
2023/09/20 13:34:21;;;;;;;;;;;23.60;82.80;;;;;;5017086;28;20016;-73
2023/09/20 13:36:47;;;;;;;;;;;23.30;82.40;;;;;;5051721;28;20383;-77
2023/09/20 13:39:16;;;;;;;;;;;23.10;82.80;;;;;;5033742;28;20283;-77
2023/09/20 13:41:45;;;;;;;;;;;22.90;82.70;;;;;;5052073;28;20011;-75
2023/09/20 13:44:10;;;;;;;;;;;22.60;82.60;;;;;;5033306;28;19999;-73
2023/09/20 13:46:39;;;;;;;;;;;22.40;82.50;;;;;;5051222;28;20042;-73
2023/09/20 13:49:08;;;;;;;;;;;22.10;82.20;;;;;;5050940;28;20610;-74
2023/09/20 13:51:34;;;;;;;;;;;21.80;82.20;;;;;;5042377;28;19916;-73
2023/09/20 13:54:00;;;;;;;;;;;21.60;82.50;;;;;;5039780;28;19917;-74
2023/09/20 13:56:25;;;;;;;;;;;21.50;82.60;;;;;;5031264;28;20369;-73
2023/09/20 13:58:54;;;;;;;;;;;21.40;82.50;;;;;;5042838;28;20026;-73
2023/09/20 14:01:22;;;;;;;;;;;21.30;82.60;;;;;;5031000;28;19913;-73
2023/09/20 14:03:48;;;;;;;;;;;21.30;82.60;;;;;;5031302;28;19921;-74
2023/09/20 14:06:13;;;;;;;;;;;21.20;82.40;;;;;;5031322;28;20239;-75
2023/09/20 14:08:39;;;;;;;;;;;21.20;82.00;;;;;;5012877;28;20011;-72
2023/09/20 14:11:07;;;;;;;;;;;21.00;82.00;;;;;;5031066;28;20289;-77
2023/09/20 14:13:32;;;;;;;;;;;21.00;81.90;;;;;;5030912;28;19956;-75
2023/09/20 14:15:58;;;;;;;;;;;20.90;81.70;;;;;;5031436;28;19952;-75
2023/09/20 14:18:24;;;;;;;;;;;20.70;81.80;;;;;;5030717;28;20284;-76
2023/09/20 14:20:52;;;;;;;;;;;20.50;81.60;;;;;;5030338;28;19915;-78
2023/09/20 14:23:18;;;;;;;;;;;20.40;81.60;;;;;;5012944;28;19929;-73
2023/09/20 14:25:47;;;;;;;;;;;20.20;81.70;;;;;;5030584;28;19917;-72
2023/09/20 14:28:13;;;;;;;;;;;20.00;82.20;;;;;;5012926;28;19981;-76
2023/09/20 14:30:38;;;;;;;;;;;20.00;81.90;;;;;;5012747;28;19909;-74
2023/09/20 14:33:04;;;;;;;;;;;19.90;82.00;;;;;;5031281;28;19944;-76
2023/09/20 14:35:30;;;;;;;;;;;19.80;81.90;;;;;;5030903;28;19928;-76
2023/09/20 14:37:55;;;;;;;;;;;19.80;81.80;;;;;;5030614;28;19917;-75
2023/09/20 14:40:21;;;;;;;;;;;19.70;81.60;;;;;;5012094;28;19913;-74
2023/09/20 14:42:48;;;;;;;;;;;19.70;81.80;;;;;;5011286;28;19919;-76
2023/09/20 14:45:16;;;;;;;;;;;19.60;81.90;;;;;;5030126;28;19948;-73
2023/09/20 14:47:45;;;;;;;;;;;19.60;81.80;;;;;;5012105;28;20004;-77
2023/09/20 14:50:14;;;;;;;;;;;19.60;81.80;;;;;;5015322;28;20328;-69
2023/09/20 14:52:40;;;;;;;;;;;19.60;81.80;;;;;;5040970;28;19949;-80
2023/09/20 14:55:06;;;;;;;;;;;19.70;82.00;;;;;;5045139;28;19963;-72